Time;durP1;ratioP1;P1;durP2;ratioP2;P2;SDS_P1;SDS_P2;PMS_P1;PMS_P2;Temp;Humidity;BMP_temperature;BMP_pressure;BME280_temperature;BME280_humidity;BME280_pressure;Samples;Min_cycle;Max_cycle;Signal;HPM_P1;HPM_P2
2021/07/18 00:00:51;;;;;;;5.63;2.47;;;17.40;99.90;;;18.36;100.00;98761.09;5044818;28;20519;-81
2021/07/18 00:03:20;;;;;;;10.07;2.30;;;17.40;99.90;;;18.36;100.00;98764.50;5046855;28;20498;-80
2021/07/18 00:05:50;;;;;;;9.83;2.50;;;17.40;99.90;;;18.32;100.00;98758.06;5045756;28;20460;-80
2021/07/18 00:08:20;;;;;;;4.40;2.30;;;17.40;99.90;;;18.09;100.00;98758.66;5045701;28;20467;-81
2021/07/18 00:10:49;;;;;;;9.80;2.70;;;17.10;99.90;;;18.10;100.00;98759.47;5041800;28;20446;-81
2021/07/18 00:13:20;;;;;;;11.90;3.10;;;17.10;99.90;;;18.09;100.00;98763.16;5044590;28;20551;-81
2021/07/18 00:15:51;;;;;;;4.83;2.60;;;17.10;99.90;;;18.14;100.00;98771.25;5043911;28;20483;-81
2021/07/18 00:18:20;;;;;;;9.53;2.80;;;17.20;99.90;;;18.15;100.00;98772.91;5048342;28;20468;-81
2021/07/18 00:20:50;;;;;;;4.93;3.07;;;17.20;99.90;;;18.11;100.00;98766.41;5047697;28;20465;-81
2021/07/18 00:23:19;;;;;;;6.90;2.63;;;17.20;99.90;;;18.10;100.00;98767.44;5043782;28;20467;-81
2021/07/18 00:25:49;;;;;;;5.50;2.80;;;17.10;99.90;;;17.98;100.00;98771.78;5047364;28;20515;-81
2021/07/18 00:28:18;;;;;;;8.07;2.80;;;17.00;99.90;;;17.97;100.00;98778.13;5049565;28;20441;-81
2021/07/18 00:30:50;;;;;;;4.30;2.63;;;16.90;99.90;;;17.98;100.00;98777.09;5039322;28;20461;-80
2021/07/18 00:33:19;;;;;;;4.57;2.50;;;16.90;99.90;;;17.83;100.00;98772.13;5048213;28;20528;-80
2021/07/18 00:35:48;;;;;;;5.07;3.10;;;16.80;99.90;;;17.75;100.00;98768.94;5046125;28;20473;-80
2021/07/18 00:38:17;;;;;;;5.57;2.57;;;16.70;99.90;;;17.78;100.00;98768.50;5039423;28;20916;-80
2021/07/18 00:40:47;;;;;;;9.67;3.00;;;16.70;99.90;;;17.78;100.00;98766.66;5043194;28;20469;-80
2021/07/18 00:43:18;;;;;;;7.83;2.63;;;16.70;99.90;;;17.71;100.00;98763.25;5043305;28;20457;-81
2021/07/18 00:45:47;;;;;;;5.40;2.80;;;16.80;99.90;;;17.66;100.00;98762.28;5042897;28;20480;-81
2021/07/18 00:48:20;;;;;;;7.40;2.63;;;16.70;99.90;;;17.55;100.00;98767.22;5047413;28;20515;-80
2021/07/18 00:50:49;;;;;;;12.20;2.40;;;16.50;99.90;;;17.56;100.00;98762.78;5043935;28;20542;-80
2021/07/18 00:53:20;;;;;;;4.40;2.90;;;16.50;99.90;;;17.56;100.00;98758.25;5045036;28;20484;-80
2021/07/18 00:55:53;;;;;;;12.57;2.57;;;16.50;99.90;;;17.55;100.00;98761.09;5047988;28;20461;-80
2021/07/18 00:58:25;;;;;;;11.70;3.00;;;16.50;99.90;;;17.55;100.00;98766.41;5046726;28;20488;-80
2021/07/18 01:00:55;;;;;;;4.33;2.30;;;16.60;99.90;;;17.52;100.00;98762.34;5044976;28;20461;-81
2021/07/18 01:03:26;;;;;;;11.50;2.63;;;16.60;99.90;;;17.45;100.00;98761.59;5042757;28;20479;-80
2021/07/18 01:05:58;;;;;;;8.90;2.97;;;16.50;99.90;;;17.45;100.00;98766.06;5043392;28;20835;-80
2021/07/18 01:08:28;;;;;;;4.53;2.80;;;16.50;99.90;;;17.48;100.00;98766.44;5041979;28;20502;-80
2021/07/18 01:10:57;;;;;;;11.27;3.70;;;16.50;99.90;;;17.50;100.00;98771.50;5045741;28;20530;-81
2021/07/18 01:13:27;;;;;;;14.40;4.20;;;16.50;99.90;;;17.42;100.00;98767.28;5047570;28;20485;-81
2021/07/18 01:15:56;;;;;;;6.83;3.67;;;16.40;99.90;;;17.20;100.00;98767.81;5044283;28;20465;-80
2021/07/18 01:18:27;;;;;;;5.00;3.00;;;16.20;99.90;;;17.11;100.00;98765.41;5046725;28;20475;-80
2021/07/18 01:20:57;;;;;;;14.33;3.07;;;16.10;99.90;;;17.21;100.00;98764.16;5048113;28;20457;-80
2021/07/18 01:23:28;;;;;;;15.33;3.17;;;16.20;99.90;;;17.18;100.00;98770.66;5045929;28;20468;-80
2021/07/18 01:25:58;;;;;;;9.23;3.27;;;16.20;99.90;;;17.24;100.00;98761.91;5046495;28;20603;-80
2021/07/18 01:28:26;;;;;;;8.53;3.00;;;16.20;99.90;;;17.29;100.00;98770.00;5045145;28;20461;-81
2021/07/18 01:30:56;;;;;;;8.40;3.13;;;16.30;99.90;;;17.13;100.00;98757.28;5043133;28;20495;-80
2021/07/18 01:33:25;;;;;;;9.10;3.43;;;16.10;99.90;;;17.06;100.00;98756.50;5045684;28;20503;-80
2021/07/18 01:35:54;;;;;;;7.00;3.40;;;16.00;99.90;;;17.05;100.00;98754.88;5045726;28;20457;-81
2021/07/18 01:38:27;;;;;;;10.13;2.93;;;16.00;99.90;;;17.07;100.00;98758.13;5046591;28;20481;-81
2021/07/18 01:40:57;;;;;;;3.87;2.80;;;16.10;99.90;;;17.08;100.00;98760.56;5045078;28;20973;-81
2021/07/18 01:43:26;;;;;;;11.70;3.30;;;16.10;99.90;;;17.08;100.00;98757.91;5047443;28;20483;-81
2021/07/18 01:45:55;;;;;;;16.73;3.20;;;16.10;99.90;;;17.06;100.00;98751.22;5041781;28;20481;-80
2021/07/18 01:48:25;;;;;;;12.13;3.53;;;16.10;99.90;;;17.08;100.00;98751.81;5043643;28;20824;-80
2021/07/18 01:50:54;;;;;;;13.20;3.13;;;16.20;99.90;;;17.04;100.00;98751.41;5042319;28;20461;-80
2021/07/18 01:53:24;;;;;;;7.80;2.57;;;16.10;99.90;;;17.06;100.00;98751.22;5044733;28;20495;-81
2021/07/18 01:55:55;;;;;;;12.57;2.87;;;16.20;99.90;;;16.97;100.00;98744.56;5044740;28;20476;-80
2021/07/18 01:58:28;;;;;;;4.20;2.47;;;16.10;99.90;;;16.98;100.00;98749.63;5044707;28;21018;-80
2021/07/18 02:00:59;;;;;;;12.03;2.80;;;16.10;99.90;;;16.97;100.00;98753.28;5047099;28;20954;-81
2021/07/18 02:03:30;;;;;;;5.27;2.93;;;16.10;99.90;;;16.97;100.00;98758.56;5044161;28;20986;-81
2021/07/18 02:06:00;;;;;;;6.27;3.20;;;16.10;99.90;;;16.92;100.00;98754.94;5041497;28;21028;-80
2021/07/18 02:08:29;;;;;;;7.37;2.80;;;16.00;99.90;;;16.84;100.00;98755.16;5042657;28;20483;-80
2021/07/18 02:11:00;;;;;;;5.47;3.27;;;15.90;99.90;;;16.88;100.00;98749.28;5045207;28;20527;-81
2021/07/18 02:13:29;;;;;;;10.77;2.90;;;15.90;99.90;;;16.84;100.00;98752.53;5039723;28;21010;-80
2021/07/18 02:15:59;;;;;;;9.13;3.57;;;15.80;99.90;;;16.81;100.00;98758.22;5042091;28;20457;-81
2021/07/18 02:18:28;;;;;;;5.87;3.00;;;15.80;99.90;;;16.86;100.00;98758.44;5041255;28;21190;-80
2021/07/18 02:20:57;;;;;;;6.30;2.90;;;15.90;99.90;;;16.83;100.00;98756.22;5041267;28;20470;-80
2021/07/18 02:23:28;;;;;;;5.10;3.30;;;15.90;99.90;;;16.86;100.00;98761.06;5043106;28;20452;-81
2021/07/18 02:25:57;;;;;;;5.03;3.17;;;15.80;99.90;;;16.76;100.00;98750.16;5043049;28;20469;-81
2021/07/18 02:28:27;;;;;;;9.83;2.80;;;15.70;99.90;;;16.72;100.00;98754.22;5041265;28;20499;-81
2021/07/18 02:30:57;;;;;;;5.40;2.60;;;15.80;99.90;;;16.73;100.00;98751.34;5039648;28;20469;-80
2021/07/18 02:33:26;;;;;;;4.67;2.57;;;15.80;99.90;;;16.70;100.00;98758.88;5038871;28;20884;-81
2021/07/18 02:35:57;;;;;;;17.30;3.20;;;15.70;99.90;;;16.72;100.00;98754.22;5045453;28;22272;-80
2021/07/18 02:38:28;;;;;;;9.27;3.13;;;15.80;99.90;;;16.71;100.00;98757.88;5043462;28;20546;-80
2021/07/18 02:40:59;;;;;;;8.53;2.50;;;15.70;99.90;;;16.60;100.00;98751.41;5044139;28;20468;-80
2021/07/18 02:43:30;;;;;;;8.73;2.33;;;15.60;99.90;;;16.61;100.00;98758.31;5044994;28;20465;-81
2021/07/18 02:46:01;;;;;;;6.30;2.90;;;15.60;99.90;;;16.55;100.00;98751.19;5040732;28;21005;-80
2021/07/18 02:48:30;;;;;;;11.17;2.80;;;15.50;99.90;;;16.38;100.00;98753.44;5044090;28;20736;-80
2021/07/18 02:51:00;;;;;;;6.23;3.00;;;15.30;99.90;;;16.37;100.00;98749.19;5040064;28;20465;-80
2021/07/18 02:53:30;;;;;;;11.23;3.30;;;15.30;99.90;;;16.38;100.00;98752.66;5045086;28;20531;-80
2021/07/18 02:55:59;;;;;;;8.77;2.67;;;15.30;99.90;;;16.27;100.00;98746.19;5042655;28;20828;-81
2021/07/18 02:58:30;;;;;;;11.10;3.00;;;15.20;99.90;;;16.26;100.00;98749.81;5040831;28;20832;-80
2021/07/18 03:01:01;;;;;;;4.23;2.40;;;15.20;99.90;;;16.13;100.00;98734.03;5042559;28;20488;-80
2021/07/18 03:03:30;;;;;;;4.50;2.53;;;15.00;99.90;;;16.20;100.00;98739.28;5044919;28;20887;-80
2021/07/18 03:06:00;;;;;;;8.13;2.70;;;15.10;99.90;;;16.17;100.00;98735.25;5046786;28;20465;-80
2021/07/18 03:08:30;;;;;;;13.37;2.60;;;15.10;99.90;;;16.25;100.00;98744.75;5041432;28;20468;-80
2021/07/18 03:11:01;;;;;;;7.03;2.70;;;15.20;99.90;;;16.23;100.00;98730.94;5046299;28;20956;-80
2021/07/18 03:13:32;;;;;;;6.83;2.40;;;15.20;99.90;;;16.22;100.00;98743.34;5042733;28;20480;-80
2021/07/18 03:16:02;;;;;;;13.63;3.53;;;15.20;99.90;;;16.08;100.00;98736.44;5041131;28;20554;-80
2021/07/18 03:18:32;;;;;;;11.13;2.50;;;15.00;99.90;;;16.09;100.00;98732.81;5042384;28;20959;-80
2021/07/18 03:21:01;;;;;;;4.83;2.57;;;15.00;99.90;;;16.05;100.00;98742.97;5047614;28;20464;-80
2021/07/18 03:23:31;;;;;;;6.03;2.43;;;15.00;99.90;;;16.04;100.00;98748.44;5047954;28;20955;-80
2021/07/18 03:26:01;;;;;;;4.30;2.67;;;14.90;99.90;;;15.94;100.00;98745.38;5046835;28;20475;-81
2021/07/18 03:28:32;;;;;;;13.27;2.40;;;14.90;99.90;;;15.88;100.00;98738.28;5041006;28;20969;-80
2021/07/18 03:31:02;;;;;;;6.30;2.60;;;14.90;99.90;;;15.77;100.00;98738.91;5045996;28;20873;-80
2021/07/18 03:33:33;;;;;;;7.27;2.23;;;14.70;99.90;;;15.89;100.00;98732.84;5046479;28;21020;-80
2021/07/18 03:36:03;;;;;;;13.63;2.40;;;14.80;99.90;;;15.87;100.00;98740.13;5048473;28;20495;-81
2021/07/18 03:38:33;;;;;;;12.87;3.07;;;14.90;99.90;;;15.92;100.00;98735.06;5046130;28;20491;-80
2021/07/18 03:41:02;;;;;;;6.90;2.50;;;15.00;99.90;;;15.90;100.00;98737.06;5045105;28;20460;-81
2021/07/18 03:43:34;;;;;;;5.40;1.90;;;14.90;99.90;;;15.91;100.00;98727.34;5047406;28;20865;-80
2021/07/18 03:46:04;;;;;;;14.77;2.73;;;15.00;99.90;;;15.93;100.00;98730.59;5046269;28;20489;-80
2021/07/18 03:48:34;;;;;;;8.90;2.60;;;15.00;99.90;;;15.94;100.00;98726.91;5045838;28;20477;-80
2021/07/18 03:51:03;;;;;;;4.40;2.13;;;15.00;99.90;;;15.86;100.00;98727.94;5045567;28;20457;-81
2021/07/18 03:53:32;;;;;;;12.67;2.70;;;14.90;99.90;;;15.78;100.00;98727.34;5045511;28;20473;-80
2021/07/18 03:56:01;;;;;;;5.10;2.40;;;14.70;99.90;;;15.81;100.00;98732.22;5048854;28;20493;-81
2021/07/18 03:58:31;;;;;;;8.03;2.30;;;14.80;99.90;;;15.78;100.00;98728.16;5043553;28;20469;-80
2021/07/18 04:01:01;;;;;;;4.83;2.10;;;14.70;99.90;;;15.77;100.00;98725.72;5043518;28;20464;-80
2021/07/18 04:03:31;;;;;;;6.70;2.30;;;14.70;99.90;;;15.86;100.00;98727.94;5047482;28;20465;-80
2021/07/18 04:06:02;;;;;;;8.90;2.60;;;14.80;99.90;;;15.82;100.00;98736.47;5044940;28;20492;-81
2021/07/18 04:08:32;;;;;;;9.43;2.77;;;14.80;99.90;;;15.80;100.00;98739.31;5047020;28;20453;-80
2021/07/18 04:11:02;;;;;;;14.17;3.13;;;14.80;99.90;;;15.76;100.00;98739.94;5046812;28;20457;-80
2021/07/18 04:13:31;;;;;;;6.60;2.27;;;14.70;99.90;;;15.80;100.00;98744.59;5049161;28;20538;-80
2021/07/18 04:16:03;;;;;;;5.27;2.43;;;14.70;99.90;;;15.75;100.00;98743.56;5045506;28;20528;-80
2021/07/18 04:18:33;;;;;;;8.63;2.20;;;14.80;99.90;;;15.79;100.00;98744.81;5041981;28;20468;-80
2021/07/18 04:21:02;;;;;;;21.90;2.73;;;14.80;99.90;;;15.69;100.00;98742.53;5046469;28;20471;-80
2021/07/18 04:23:33;;;;;;;8.80;2.50;;;14.70;99.90;;;15.73;100.00;98737.69;5046322;28;20882;-80
2021/07/18 04:26:03;;;;;;;10.20;2.50;;;14.80;99.90;;;15.79;100.00;98740.31;5043629;28;20445;-82
2021/07/18 04:28:33;;;;;;;17.43;2.90;;;14.90;99.90;;;15.78;100.00;98745.81;5046929;28;20469;-80
2021/07/18 04:31:04;;;;;;;6.87;3.27;;;14.80;99.90;;;15.80;100.00;98741.13;5046321;28;20975;-80
2021/07/18 04:33:33;;;;;;;5.10;2.37;;;14.80;99.90;;;15.84;100.00;98742.34;5046893;28;20457;-80
2021/07/18 04:36:02;;;;;;;5.77;2.80;;;14.90;99.90;;;15.82;100.00;98741.75;5044923;28;20590;-81
2021/07/18 04:38:32;;;;;;;4.40;2.27;;;14.90;99.90;;;15.78;100.00;98748.44;5047120;28;20473;-80
2021/07/18 04:41:02;;;;;;;8.87;2.40;;;14.90;99.90;;;15.78;100.00;98746.63;5045019;28;21026;-80
2021/07/18 04:43:32;;;;;;;2.70;2.30;;;14.80;99.90;;;15.82;100.00;98742.56;5042516;28;20555;-80
2021/07/18 04:46:04;;;;;;;9.23;2.80;;;14.90;99.90;;;15.81;100.00;98743.56;5045051;28;20493;-80
2021/07/18 04:48:34;;;;;;;5.87;2.40;;;14.90;99.90;;;15.87;100.00;98750.66;5034716;28;20529;-80
2021/07/18 04:51:03;;;;;;;22.20;10.33;;;15.00;99.90;;;15.91;100.00;98751.06;5045544;28;20483;-78
2021/07/18 04:53:32;;;;;;;4.70;2.87;;;15.10;99.90;;;15.97;100.00;98752.91;5042070;28;21025;-80
2021/07/18 04:56:02;;;;;;;7.40;2.80;;;15.10;99.90;;;16.01;100.00;98757.56;5041533;28;20566;-80
2021/07/18 04:58:32;;;;;;;3.70;2.50;;;15.10;99.90;;;16.05;100.00;98753.50;5046540;28;20806;-80
2021/07/18 05:01:03;;;;;;;6.37;4.00;;;15.10;99.90;;;16.09;100.00;98756.56;5042447;28;20477;-81
2021/07/18 05:03:34;;;;;;;9.20;3.00;;;15.20;99.90;;;16.11;100.00;98759.78;5042285;28;20963;-80
2021/07/18 05:06:05;;;;;;;5.30;2.80;;;15.20;99.90;;;16.16;100.00;98759.19;5046240;28;20870;-80
2021/07/18 05:08:35;;;;;;;6.03;2.93;;;15.20;99.90;;;16.15;100.00;98753.09;5044289;28;20465;-80
2021/07/18 05:11:05;;;;;;;4.50;3.00;;;15.20;99.90;;;16.23;100.00;98758.16;5045295;28;20515;-80
2021/07/18 05:13:35;;;;;;;4.77;2.87;;;15.30;99.90;;;16.27;100.00;98751.47;5044907;28;20464;-80
2021/07/18 05:16:07;;;;;;;18.20;14.10;;;15.30;99.90;;;16.33;100.00;98750.63;5041915;28;20496;-83
2021/07/18 05:18:37;;;;;;;14.60;3.70;;;15.40;99.90;;;16.33;100.00;98740.06;5042821;28;20550;-79
2021/07/18 05:21:07;;;;;;;7.93;3.00;;;15.40;99.90;;;16.37;100.00;98736.00;5042471;28;20467;-79
2021/07/18 05:23:37;;;;;;;8.07;3.10;;;15.50;99.90;;;16.45;100.00;98746.31;5045558;28;20935;-79
2021/07/18 05:26:06;;;;;;;4.70;2.63;;;15.60;99.90;;;16.54;100.00;98746.91;5042170;28;20479;-80
2021/07/18 05:28:37;;;;;;;9.93;3.13;;;15.60;99.90;;;16.56;100.00;98752.81;5042947;28;20441;-79
2021/07/18 05:31:09;;;;;;;4.43;2.70;;;15.70;99.90;;;16.63;100.00;98750.97;5047049;28;20472;-80
2021/07/18 05:33:38;;;;;;;4.77;2.60;;;15.80;99.90;;;16.68;100.00;98747.72;5047788;28;20460;-79
2021/07/18 05:36:12;;;;;;;4.90;2.50;;;15.90;99.90;;;16.76;100.00;98750.16;5046765;28;20493;-79
2021/07/18 05:38:41;;;;;;;7.90;3.20;;;15.90;99.90;;;16.80;100.00;98751.34;5044525;28;21008;-79
2021/07/18 05:41:12;;;;;;;6.93;3.17;;;16.10;99.90;;;16.87;100.00;98747.63;5046550;28;20536;-80
2021/07/18 05:43:42;;;;;;;7.70;3.33;;;16.10;99.90;;;16.94;100.00;98760.81;5047325;28;21038;-80
2021/07/18 05:46:12;;;;;;;5.53;2.87;;;16.10;99.90;;;16.97;100.00;98758.56;5046606;28;21010;-79
2021/07/18 05:48:41;;;;;;;5.90;3.03;;;16.20;99.90;;;17.03;100.00;98759.56;5046647;28;20437;-80
2021/07/18 05:51:11;;;;;;;9.07;3.60;;;16.20;99.90;;;17.08;100.00;98757.91;5047197;28;20453;-79
2021/07/18 05:53:40;;;;;;;2.90;2.60;;;16.30;99.90;;;17.13;100.00;98757.28;5047809;28;20890;-79
2021/07/18 05:56:11;;;;;;;9.63;3.63;;;16.40;99.90;;;17.16;100.00;98762.16;5046428;28;20858;-79
2021/07/18 05:58:41;;;;;;;7.10;3.30;;;16.40;99.90;;;17.23;100.00;98762.91;5045117;28;20470;-80
2021/07/18 06:01:11;;;;;;;6.93;3.93;;;16.50;99.90;;;17.28;100.00;98764.94;5043064;28;22022;-80
2021/07/18 06:03:41;;;;;;;9.43;3.40;;;16.60;99.90;;;17.35;100.00;98774.47;5041193;28;21201;-80
2021/07/18 06:06:10;;;;;;;12.33;3.23;;;16.60;99.90;;;17.40;100.00;98766.69;5042415;28;20539;-84
2021/07/18 06:08:40;;;;;;;26.50;15.07;;;16.70;99.90;;;17.45;100.00;98766.88;5048840;28;20475;-80
2021/07/18 06:11:09;;;;;;;7.80;4.50;;;16.70;99.90;;;17.51;100.00;98771.31;5041659;28;20468;-80
2021/07/18 06:13:38;;;;;;;5.13;3.40;;;16.80;99.90;;;17.56;100.00;98768.06;5043110;28;20460;-80
2021/07/18 06:16:08;;;;;;;4.13;3.00;;;16.90;99.90;;;17.62;100.00;98766.38;5043720;28;20536;-80
2021/07/18 06:18:40;;;;;;;8.20;3.27;;;16.90;99.90;;;17.69;100.00;98767.16;5046697;28;20441;-79
2021/07/18 06:21:09;;;;;;;12.10;3.80;;;16.90;99.90;;;17.72;100.00;98766.72;5046983;28;20476;-80
2021/07/18 06:23:39;;;;;;;4.83;3.40;;;17.00;99.90;;;17.77;100.00;98769.53;5048564;28;20908;-80
2021/07/18 06:26:13;;;;;;;4.13;2.80;;;17.10;99.90;;;17.81;100.00;98770.69;5047538;28;21019;-80
2021/07/18 06:28:43;;;;;;;6.40;3.10;;;17.10;99.90;;;17.85;100.00;98775.38;5046973;28;20523;-80
2021/07/18 06:31:13;;;;;;;3.70;3.10;;;17.10;99.90;;;17.85;100.00;98775.38;5040589;28;20461;-80
2021/07/18 06:33:45;;;;;;;5.17;3.30;;;17.10;99.90;;;17.91;100.00;98774.50;5044375;28;20485;-80
2021/07/18 06:36:13;;;;;;;5.00;3.10;;;17.20;99.90;;;17.97;100.00;98771.00;5046319;28;20492;-80
2021/07/18 06:38:43;;;;;;;6.50;4.00;;;17.20;99.90;;;18.03;100.00;98777.25;5044432;28;20465;-79
2021/07/18 06:41:13;;;;;;;5.00;3.50;;;17.30;99.90;;;18.05;100.00;98777.84;5044802;28;20469;-80
2021/07/18 06:43:44;;;;;;;7.83;3.60;;;17.30;99.90;;;18.12;100.00;98772.50;5046665;28;20465;-80
2021/07/18 06:46:29;;;;;;;6.00;2.93;;;17.40;99.90;;;18.16;100.00;98769.19;5040274;28;20493;-80
2021/07/18 06:49:01;;;;;;;6.20;3.33;;;17.50;99.90;;;18.20;100.00;98769.56;5045427;28;20468;-80
2021/07/18 06:51:30;;;;;;;111.10;62.40;;;17.50;99.90;;;18.24;100.00;98766.28;5046850;28;20865;-83
2021/07/18 06:54:00;;;;;;;15.27;7.67;;;17.50;99.90;;;18.28;100.00;98774.59;5045667;28;20471;-81
2021/07/18 06:56:31;;;;;;;5.37;3.70;;;17.60;99.90;;;18.34;100.00;98777.19;5044008;28;20599;-81
2021/07/18 06:59:00;;;;;;;13.70;4.30;;;17.60;99.90;;;18.39;100.00;98774.69;5050647;28;20987;-81
2021/07/18 07:01:30;;;;;;;7.60;3.40;;;17.70;99.90;;;18.42;100.00;98774.25;5044047;28;20496;-80
2021/07/18 07:04:02;;;;;;;7.47;4.00;;;17.70;99.90;;;18.41;100.00;98783.22;5045180;28;20461;-80
2021/07/18 07:06:32;;;;;;;8.43;3.50;;;17.70;99.90;;;18.44;100.00;98785.44;5045323;28;20453;-80
2021/07/18 07:09:01;;;;;;;8.80;3.87;;;17.70;99.90;;;18.49;100.00;98784.78;5047267;28;20457;-81
2021/07/18 07:11:31;;;;;;;4.10;3.03;;;17.80;99.90;;;18.54;100.00;98774.34;5047867;28;20467;-79
2021/07/18 07:14:00;;;;;;;51.43;34.93;;;17.80;99.90;;;18.57;100.00;98776.56;5048710;28;20844;-83
2021/07/18 07:16:29;;;;;;;6.83;5.00;;;17.80;99.90;;;18.63;100.00;98782.84;5048536;28;20505;-81
2021/07/18 07:19:01;;;;;;;6.70;3.57;;;17.90;99.90;;;18.66;100.00;98787.69;5049991;28;20556;-81
2021/07/18 07:21:30;;;;;;;6.63;3.93;;;17.90;99.90;;;18.71;100.00;98788.63;5048588;28;20449;-80
2021/07/18 07:23:59;;;;;;;5.40;4.10;;;18.00;99.90;;;18.76;100.00;98780.03;5049695;28;20843;-80
2021/07/18 07:26:28;;;;;;;10.03;3.80;;;18.00;99.90;;;18.81;100.00;98782.84;5050732;28;20434;-81
2021/07/18 07:28:57;;;;;;;5.07;3.23;;;18.10;99.90;;;18.84;100.00;98783.22;5049651;28;20486;-80
2021/07/18 07:31:27;;;;;;;7.57;3.50;;;18.10;99.90;;;18.89;100.00;98774.56;5048946;28;20527;-81
2021/07/18 07:33:56;;;;;;;4.80;3.67;;;18.20;99.90;;;18.94;100.00;98775.53;5049138;28;20449;-81
2021/07/18 07:36:27;;;;;;;5.43;3.40;;;18.30;99.90;;;18.98;100.00;98776.72;5048423;28;20472;-80
2021/07/18 07:38:56;;;;;;;5.87;3.60;;;18.30;99.90;;;19.00;100.00;98776.47;5049349;28;20467;-81
2021/07/18 07:41:25;;;;;;;13.83;3.70;;;18.30;99.90;;;19.04;100.00;98782.97;5047818;28;20522;-81
2021/07/18 07:43:57;;;;;;;7.03;3.73;;;18.30;99.90;;;19.06;100.00;98792.31;5048823;28;21019;-80
2021/07/18 07:46:27;;;;;;;5.60;2.80;;;18.30;99.90;;;19.07;100.00;98785.16;5048009;28;20515;-81
2021/07/18 07:48:55;;;;;;;4.13;3.33;;;18.30;99.90;;;19.12;100.00;98780.03;5042757;28;20489;-81
2021/07/18 07:51:26;;;;;;;7.17;3.43;;;18.40;99.90;;;19.17;100.00;98769.53;5049137;28;20446;-81
2021/07/18 07:53:54;;;;;;;5.70;3.40;;;18.40;99.90;;;19.19;100.00;98770.13;5047418;28;20457;-81
2021/07/18 07:56:24;;;;;;;7.50;3.80;;;18.40;99.90;;;19.22;100.00;98769.69;5048288;28;20465;-81
2021/07/18 07:58:54;;;;;;;4.83;3.17;;;18.50;99.90;;;19.26;100.00;98778.81;5046236;28;20479;-81
2021/07/18 08:01:24;;;;;;;6.13;2.57;;;18.50;99.90;;;19.30;100.00;98785.25;5045602;28;20503;-81
2021/07/18 08:03:53;;;;;;;5.13;3.60;;;18.60;99.90;;;19.34;100.00;98773.19;5047770;28;20441;-81
2021/07/18 08:06:23;;;;;;;9.83;3.80;;;18.60;99.90;;;19.37;100.00;98778.03;5042663;28;20465;-81
2021/07/18 08:08:54;;;;;;;5.60;3.20;;;18.70;99.90;;;19.41;100.00;98775.75;5047949;28;20480;-81
2021/07/18 08:11:23;;;;;;;4.43;2.60;;;18.70;99.90;;;19.41;100.00;98773.94;5046692;28;20469;-81
2021/07/18 08:13:54;;;;;;;270.50;137.77;;;18.70;99.90;;;19.44;100.00;98770.81;5045072;28;20471;-82
2021/07/18 08:16:23;;;;;;;12.87;6.93;;;18.70;99.90;;;19.48;100.00;98769.34;5040064;28;23179;-82
2021/07/18 08:18:52;;;;;;;4.10;2.30;;;18.80;99.90;;;19.52;100.00;98767.84;5046374;28;20489;-81
2021/07/18 08:21:22;;;;;;;3.83;2.57;;;18.80;99.90;;;19.59;100.00;98768.56;5046531;28;20468;-81
2021/07/18 08:24:11;;;;;;;8.50;2.57;;;18.90;99.90;;;19.63;100.00;98768.09;5046320;28;20456;-84
2021/07/18 08:26:41;;;;;;;6.03;2.80;;;19.00;99.90;;;19.66;100.00;98760.50;5043854;28;20579;-82
2021/07/18 08:29:11;;;;;;;3.80;2.40;;;19.00;99.90;;;19.72;100.00;98756.13;5046745;28;20461;-82
2021/07/18 08:31:42;;;;;;;5.23;2.60;;;19.00;99.90;;;19.75;100.00;98758.34;5041979;28;20846;-83
2021/07/18 08:34:11;;;;;;;8.60;2.73;;;19.00;99.90;;;19.81;100.00;98758.22;5042850;28;20506;-82
2021/07/18 08:36:39;;;;;;;4.10;2.03;;;19.10;99.90;;;19.85;100.00;98762.06;5046370;28;20461;-83
2021/07/18 08:39:10;;;;;;;38.60;18.57;;;19.20;99.90;;;19.89;100.00;98765.84;5046013;28;20488;-84
2021/07/18 08:41:43;;;;;;;12.30;4.20;;;19.30;99.90;;;19.93;100.00;98766.19;5041648;28;20473;-83
2021/07/18 08:44:14;;;;;;;3.00;2.27;;;19.20;99.90;;;19.99;100.00;98770.63;5047936;28;20463;-82
2021/07/18 08:46:45;;;;;;;3.10;1.93;;;19.30;99.90;;;20.04;100.00;98757.44;5047735;28;20547;-83
2021/07/18 08:49:15;;;;;;;4.30;2.10;;;19.40;99.90;;;20.08;100.00;98753.28;5047876;28;20501;-83
2021/07/18 08:51:45;;;;;;;2.70;2.40;;;19.40;99.90;;;20.11;100.00;98763.44;5044455;28;20445;-83
2021/07/18 08:54:19;;;;;;;4.90;1.67;;;19.40;99.90;;;20.20;100.00;98759.41;5047622;28;20445;-83
2021/07/18 08:56:49;;;;;;;3.43;1.70;;;19.50;99.90;;;20.26;100.00;98749.72;5047916;28;20519;-83
2021/07/18 08:59:18;;;;;;;9.93;1.90;;;19.60;99.90;;;20.32;100.00;98760.25;5044038;28;21020;-83
2021/07/18 09:01:47;;;;;;;5.00;1.80;;;19.70;99.90;;;20.35;100.00;98765.09;5042992;28;20465;-83
2021/07/18 09:04:16;;;;;;;25.20;11.70;;;19.70;99.90;;;20.40;100.00;98761.75;5039666;28;20964;-86
2021/07/18 09:06:47;;;;;;;8.77;2.70;;;19.70;99.90;;;20.45;100.00;98752.03;5044714;28;20469;-83
2021/07/18 09:09:20;;;;;;;6.57;2.43;;;19.80;99.90;;;20.53;100.00;98750.88;5045102;28;21010;-84
2021/07/18 09:11:58;;;;;;;3.20;1.70;;;19.90;99.90;;;20.57;100.00;98757.34;5044669;28;20477;-83
2021/07/18 09:14:33;;;;;;;4.23;1.90;;;20.00;99.90;;;20.58;100.00;98754.44;5044567;28;20460;-82
2021/07/18 09:17:02;;;;;;;5.90;2.20;;;20.00;99.90;;;20.63;100.00;98747.63;5047561;28;20465;-82
2021/07/18 09:19:33;;;;;;;2.33;1.60;;;20.00;99.90;;;20.73;100.00;98747.81;5043884;28;20541;-82
2021/07/18 09:22:18;;;;;;;3.07;1.50;;;20.10;99.90;;;20.75;100.00;98751.06;5041685;28;20545;-82
2021/07/18 09:24:52;;;;;;;5.20;1.90;;;20.10;99.90;;;20.78;100.00;98748.75;5047595;28;20442;-83
2021/07/18 09:27:25;;;;;;;4.90;2.00;;;20.10;99.90;;;20.81;100.00;98739.50;5047590;28;20445;-82
2021/07/18 09:29:57;;;;;;;7.10;2.10;;;20.20;99.90;;;20.86;100.00;98739.59;5046982;28;20990;-82
2021/07/18 09:32:29;;;;;;;5.07;2.03;;;20.30;99.90;;;20.91;100.00;98748.47;5047534;28;20506;-82
2021/07/18 09:35:03;;;;;;;4.97;1.60;;;20.30;99.90;;;20.95;100.00;98736.34;5048373;28;20491;-83
2021/07/18 09:37:35;;;;;;;2.87;1.90;;;20.30;99.90;;;21.00;100.00;98735.59;5046988;28;20871;-83
2021/07/18 09:40:10;;;;;;;3.00;2.23;;;20.40;99.90;;;21.03;100.00;98730.63;5047741;28;20476;-82
2021/07/18 09:42:43;;;;;;;4.90;2.10;;;20.40;99.90;;;21.08;100.00;98730.72;5047759;28;20946;-82
2021/07/18 09:45:20;;;;;;;6.40;2.80;;;20.40;99.90;;;21.14;100.00;98731.66;5049883;28;21015;-82
2021/07/18 09:48:09;;;;;;;2.63;1.97;;;20.50;99.90;;;21.17;100.00;98728.53;5047459;28;20464;-82
2021/07/18 09:50:41;;;;;;;8.73;2.40;;;20.60;99.90;;;21.22;100.00;98719.81;5053489;28;20464;-83
2021/07/18 09:53:33;;;;;;;24.17;13.57;;;20.60;99.90;;;21.24;100.00;98726.50;5046479;28;20444;-86
2021/07/18 09:56:09;;;;;;;7.63;3.00;;;20.60;99.90;;;21.28;100.00;98722.31;5041997;28;20452;-82
2021/07/18 09:58:41;;;;;;;9.50;2.37;;;20.70;99.90;;;21.31;100.00;98718.41;5047524;28;20534;-83
2021/07/18 10:01:19;;;;;;;3.00;2.20;;;20.60;99.90;;;21.34;100.00;98712.59;5047625;28;20974;-85
2021/07/18 10:03:50;;;;;;;7.87;2.33;;;20.70;99.90;;;21.38;100.00;98717.19;5045365;28;20511;-83
2021/07/18 10:06:24;;;;;;;2.77;2.20;;;20.70;99.90;;;21.40;100.00;98715.09;5046358;28;20441;-83
2021/07/18 10:08:55;;;;;;;4.53;2.30;;;20.70;99.90;;;21.44;100.00;98718.09;5047316;28;20506;-83
2021/07/18 10:11:28;;;;;;;8.90;2.97;;;20.80;99.90;;;21.49;100.00;98716.31;5041688;28;20511;-83
2021/07/18 10:13:59;;;;;;;2.67;2.10;;;20.80;99.90;;;21.53;100.00;98719.31;5047513;28;20495;-83
2021/07/18 10:16:32;;;;;;;4.10;2.60;;;20.90;99.90;;;21.59;100.00;98713.00;5043901;28;20533;-83
2021/07/18 10:19:02;;;;;;;8.20;2.40;;;21.00;99.90;;;21.62;100.00;98706.41;5046226;28;20862;-83
2021/07/18 10:21:31;;;;;;;4.67;2.63;;;21.00;99.90;;;21.71;100.00;98699.63;5047139;28;20445;-83
2021/07/18 10:24:02;;;;;;;4.77;2.30;;;21.10;99.90;;;21.71;100.00;98712.94;5046959;28;20446;-83